createdAt,value
2018-05-03T00:01:50.029Z,11.09
2018-05-03T00:04:16.880Z,11.24
2018-05-03T00:06:43.771Z,11.23
2018-05-03T00:09:10.607Z,11.10
2018-05-03T00:11:37.486Z,11.06
2018-05-03T00:14:04.332Z,11.05
2018-05-03T00:16:31.271Z,11.03
2018-05-03T00:18:58.119Z,11.07
2018-05-03T00:21:24.977Z,11.18
2018-05-03T00:23:51.864Z,11.01
2018-05-03T00:26:19.451Z,10.77
2018-05-03T00:28:46.436Z,10.75
2018-05-03T00:31:13.308Z,10.82
2018-05-03T00:33:40.187Z,10.90
2018-05-03T00:36:07.077Z,10.94
2018-05-03T00:38:33.927Z,10.77
2018-05-03T00:41:00.934Z,10.78
2018-05-03T00:43:27.776Z,10.93
2018-05-03T00:45:54.620Z,10.87
2018-05-03T00:48:21.521Z,10.78
2018-05-03T00:50:49.166Z,10.70
2018-05-03T00:53:16.417Z,10.53
2018-05-03T00:55:43.261Z,10.62
2018-05-03T00:58:10.987Z,10.53
2018-05-03T01:00:37.984Z,10.50
2018-05-03T01:03:04.852Z,10.42
2018-05-03T01:05:32.442Z,10.40
2018-05-03T01:07:59.384Z,10.33
2018-05-03T01:10:26.258Z,10.39
2018-05-03T01:12:53.150Z,10.24
2018-05-03T01:15:20.750Z,10.11
2018-05-03T01:17:47.590Z,10.09
2018-05-03T01:20:14.544Z,10.13
2018-05-03T01:22:41.381Z,9.87
2018-05-03T01:25:08.555Z,9.89
2018-05-03T01:27:35.417Z,9.95
2018-05-03T01:30:02.325Z,9.93
2018-05-03T01:32:29.200Z,9.75
2018-05-03T01:35:14.278Z,9.96
2018-05-03T01:37:41.172Z,9.90
2018-05-03T01:40:08.015Z,9.77
2018-05-03T01:42:34.895Z,9.82
2018-05-03T01:45:01.738Z,9.78
2018-05-03T01:47:28.627Z,9.60
2018-05-03T01:49:56.242Z,9.69
2018-05-03T01:52:23.095Z,9.81
2018-05-03T01:54:49.979Z,9.76
2018-05-03T01:57:17.583Z,9.63
2018-05-03T01:59:44.506Z,9.56
2018-05-03T02:02:11.701Z,9.48
2018-05-03T02:04:38.563Z,9.64
2018-05-03T02:07:05.455Z,9.70
2018-05-03T02:09:32.387Z,9.74
2018-05-03T02:11:59.232Z,9.57
2018-05-03T02:14:26.115Z,9.68
2018-05-03T02:16:52.969Z,9.74
2018-05-03T02:19:19.869Z,9.97
2018-05-03T02:21:46.713Z,10.04
2018-05-03T02:24:13.567Z,10.08
2018-05-03T02:26:40.450Z,10.07
2018-05-03T02:29:07.300Z,10.12
2018-05-03T02:31:34.205Z,10.23
2018-05-03T02:34:01.088Z,10.16
2018-05-03T02:36:28.000Z,10.23
2018-05-03T02:38:54.891Z,10.16
2018-05-03T02:41:21.765Z,10.25
2018-05-03T02:43:49.398Z,10.16
2018-05-03T02:46:16.276Z,10.17
2018-05-03T02:48:43.864Z,10.13
2018-05-03T02:51:10.760Z,10.16
2018-05-03T02:53:38.349Z,10.24
2018-05-03T02:56:05.228Z,10.14
2018-05-03T03:01:57.758Z,10.18
2018-05-03T03:04:48.947Z,10.15
2018-05-03T03:14:40.699Z,10.28
2018-05-03T03:17:32.945Z,10.36
2018-05-03T03:20:21.901Z,10.45
2018-05-03T03:23:13.247Z,10.58
2018-05-03T03:29:29.268Z,10.68
2018-05-03T03:38:35.057Z,10.84
2018-05-03T03:41:20.236Z,10.86
2018-05-03T03:44:05.428Z,10.95
2018-05-03T03:46:33.028Z,10.97
2018-05-03T03:48:59.888Z,11.00
2018-05-03T03:51:28.533Z,10.93
2018-05-03T03:53:55.384Z,11.10
2018-05-03T03:56:22.261Z,11.05
2018-05-03T03:58:49.155Z,11.01
2018-05-03T04:01:16.827Z,10.96
2018-05-03T04:03:43.791Z,10.93
2018-05-03T04:06:10.675Z,10.98
2018-05-03T04:08:37.568Z,11.00
2018-05-03T04:11:05.188Z,10.79
2018-05-03T04:13:32.256Z,10.94
2018-05-03T04:15:59.109Z,10.96
2018-05-03T04:18:44.224Z,10.90
2018-05-03T04:21:29.299Z,10.76
2018-05-03T04:24:15.361Z,10.84
2018-05-03T04:26:42.996Z,10.88
2018-05-03T04:29:09.878Z,10.71
2018-05-03T04:31:36.730Z,10.67
2018-05-03T04:34:03.603Z,10.55
2018-05-03T04:36:30.493Z,10.60
2018-05-03T04:38:58.101Z,10.37
2018-05-03T04:41:25.375Z,10.40
2018-05-03T04:43:52.236Z,10.53
2018-05-03T04:46:19.085Z,10.45
2018-05-03T04:48:45.967Z,10.51
2018-05-03T04:51:12.871Z,10.41
2018-05-03T04:53:39.715Z,10.33
2018-05-03T04:56:06.570Z,10.31
2018-05-03T04:58:33.513Z,10.25
2018-05-03T05:01:00.744Z,10.41
2018-05-03T05:03:27.603Z,10.41
2018-05-03T05:05:54.449Z,10.45
2018-05-03T05:08:21.342Z,10.55
2018-05-03T05:10:48.191Z,10.57
2018-05-03T05:13:15.036Z,10.54
2018-05-03T05:15:41.981Z,10.52
2018-05-03T05:18:08.835Z,10.59
2018-05-03T05:20:35.685Z,10.75
2018-05-03T05:23:02.573Z,10.75
2018-05-03T05:25:29.468Z,10.89
2018-05-03T05:27:56.360Z,10.68
2018-05-03T05:30:23.205Z,10.64
2018-05-03T05:32:50.444Z,10.64
2018-05-03T05:35:17.308Z,10.76
2018-05-03T05:37:44.162Z,10.83
2018-05-03T05:40:11.859Z,10.68
2018-05-03T05:42:38.786Z,10.63
2018-05-03T05:45:06.374Z,10.98
2018-05-03T05:47:33.552Z,10.90
2018-05-03T05:50:00.392Z,10.66
2018-05-03T05:52:27.244Z,10.87
2018-05-03T05:54:54.143Z,10.89
2018-05-03T05:57:21.033Z,10.92
2018-05-03T05:59:47.875Z,10.85
2018-05-03T06:02:14.765Z,11.06
2018-05-03T06:04:41.665Z,10.84
2018-05-03T06:07:08.524Z,11.23
2018-05-03T06:09:35.408Z,11.01
2018-05-03T06:12:02.297Z,10.93
2018-05-03T06:14:29.155Z,11.34
2018-05-03T06:16:56.045Z,11.52
2018-05-03T06:19:22.887Z,11.60
2018-05-03T06:21:50.528Z,11.61
2018-05-03T06:24:18.135Z,11.60
2018-05-03T06:26:44.979Z,11.69
2018-05-03T06:29:11.894Z,11.60
2018-05-03T06:31:39.515Z,11.18
2018-05-03T06:34:06.361Z,11.48
2018-05-03T06:36:33.276Z,11.56
2018-05-03T06:39:00.134Z,11.50
2018-05-03T06:41:26.993Z,11.82
2018-05-03T06:43:53.905Z,11.68
2018-05-03T06:46:20.759Z,11.82
2018-05-03T06:48:47.683Z,12.09
2018-05-03T06:51:14.537Z,11.49
2018-05-03T06:53:41.722Z,11.94
2018-05-03T06:56:08.568Z,12.19
2018-05-03T06:58:35.582Z,12.27
2018-05-03T07:01:02.454Z,12.22
2018-05-03T07:03:29.321Z,11.69
2018-05-03T07:05:56.476Z,12.16
2018-05-03T07:08:23.324Z,12.03
2018-05-03T07:10:50.228Z,12.12
2018-05-03T07:13:17.112Z,12.68
2018-05-03T07:15:43.992Z,12.96
2018-05-03T07:18:10.966Z,13.26
2018-05-03T07:20:37.865Z,13.29
2018-05-03T07:23:05.456Z,12.58
2018-05-03T07:25:32.380Z,12.61
2018-05-03T07:27:59.965Z,12.98
2018-05-03T07:30:26.865Z,12.92
2018-05-03T07:32:53.745Z,13.29
2018-05-03T07:35:20.648Z,13.90
2018-05-03T07:37:47.984Z,13.56
2018-05-03T07:40:14.836Z,13.68
2018-05-03T07:42:41.673Z,13.45
2018-05-03T07:45:08.621Z,13.23
2018-05-03T07:47:36.249Z,12.95
2018-05-03T07:50:03.213Z,13.43
2018-05-03T07:52:30.058Z,13.68
2018-05-03T07:54:56.961Z,13.82
2018-05-03T07:57:24.554Z,13.55
2018-05-03T07:59:51.411Z,13.54
2018-05-03T08:02:18.363Z,13.24
2018-05-03T08:04:45.208Z,13.77
2018-05-03T08:07:12.052Z,13.21
2018-05-03T08:09:39.075Z,14.24
2018-05-03T08:12:05.915Z,14.87
2018-05-03T08:14:32.829Z,14.18
2018-05-03T08:16:59.768Z,14.51
2018-05-03T08:19:26.647Z,15.09
2018-05-03T08:21:54.232Z,15.25
2018-05-03T08:24:21.133Z,15.74
2018-05-03T08:26:48.764Z,15.28
2018-05-03T08:29:15.604Z,15.79
2018-05-03T08:31:42.505Z,15.15
2018-05-03T08:34:09.340Z,15.78
2018-05-03T08:36:37.237Z,15.75
2018-05-03T08:39:04.931Z,15.70
2018-05-03T08:41:31.776Z,15.85
2018-05-03T08:43:58.705Z,15.58
2018-05-03T08:46:25.611Z,16.31
2018-05-03T08:48:52.501Z,15.98
2018-05-03T08:51:19.337Z,15.59
2018-05-03T08:53:46.179Z,16.57
2018-05-03T08:56:13.093Z,15.88
2018-05-03T08:58:39.991Z,16.02
2018-05-03T09:01:06.932Z,15.66
2018-05-03T09:03:33.789Z,15.87
2018-05-03T09:06:00.664Z,15.59
2018-05-03T09:08:28.302Z,16.17
2018-05-03T09:10:55.159Z,16.70
2018-05-03T09:13:22.063Z,16.72
2018-05-03T09:15:48.920Z,16.61
2018-05-03T09:18:15.993Z,16.77
2018-05-03T09:20:43.014Z,16.84
2018-05-03T09:23:09.900Z,15.84
2018-05-03T09:25:37.556Z,15.82
2018-05-03T09:28:04.412Z,15.87
2018-05-03T09:30:32.004Z,16.13
2018-05-03T09:32:59.131Z,16.67
2018-05-03T09:35:26.715Z,16.00
2018-05-03T09:37:53.599Z,15.86
2018-05-03T09:40:20.499Z,16.03
2018-05-03T09:42:47.339Z,15.88
2018-05-03T09:45:14.547Z,16.32
2018-05-03T09:47:41.445Z,16.60
2018-05-03T09:50:08.289Z,16.38
2018-05-03T09:52:35.445Z,16.43
2018-05-03T09:55:02.274Z,16.38
2018-05-03T09:57:29.139Z,16.58
2018-05-03T09:59:56.037Z,15.96
2018-05-03T10:02:22.922Z,16.89
2018-05-03T10:04:49.986Z,17.14
2018-05-03T10:07:16.779Z,16.70
2018-05-03T10:09:44.372Z,16.81
2018-05-03T10:12:11.280Z,16.44
2018-05-03T10:14:38.925Z,16.71
2018-05-03T10:17:05.780Z,16.92
2018-05-03T10:19:32.671Z,16.92
2018-05-03T10:21:59.577Z,17.23
2018-05-03T10:24:26.431Z,16.94
2018-05-03T10:26:53.323Z,16.25
2018-05-03T10:29:20.211Z,16.21
2018-05-03T10:31:47.064Z,16.48
2018-05-03T10:34:14.701Z,16.55
2018-05-03T10:36:41.543Z,16.57
2018-05-03T10:39:08.477Z,16.73
2018-05-03T10:41:35.324Z,16.89
2018-05-03T10:44:02.190Z,16.57
2018-05-03T10:46:29.090Z,16.85
2018-05-03T10:48:55.983Z,16.75
2018-05-03T10:51:22.879Z,16.38
2018-05-03T10:53:49.736Z,15.86
2018-05-03T10:56:16.571Z,15.81
2018-05-03T10:58:43.591Z,15.59
2018-05-03T11:01:11.200Z,15.67
2018-05-03T11:03:38.407Z,16.08
2018-05-03T11:06:06.039Z,15.94
2018-05-03T11:08:32.900Z,16.36
2018-05-03T11:11:00.554Z,16.00
2018-05-03T11:13:27.412Z,16.68
2018-05-03T11:15:55.059Z,16.50
2018-05-03T11:18:21.908Z,16.79
2018-05-03T11:20:48.750Z,17.06
2018-05-03T11:23:15.668Z,17.41
2018-05-03T11:25:42.520Z,17.68
2018-05-03T11:28:09.367Z,17.65
2018-05-03T11:30:36.291Z,16.86
2018-05-03T11:33:03.152Z,17.21
2018-05-03T11:35:30.037Z,17.34
2018-05-03T11:37:57.629Z,16.82
2018-05-03T11:40:25.433Z,16.47
2018-05-03T11:42:52.513Z,17.20
2018-05-03T11:45:20.104Z,16.44
2018-05-03T11:47:47.137Z,16.54
2018-05-03T11:50:14.040Z,16.74
2018-05-03T11:52:40.877Z,16.19
2018-05-03T11:55:07.785Z,16.26
2018-05-03T11:57:34.641Z,16.46
2018-05-03T12:00:01.499Z,17.02
2018-05-03T12:02:28.419Z,17.19
2018-05-03T12:04:55.363Z,16.65
2018-05-03T12:07:22.245Z,16.87
2018-05-03T12:09:49.146Z,17.35
2018-05-03T12:12:15.999Z,17.48
2018-05-03T12:14:53.572Z,17.46
2018-05-03T12:17:21.168Z,17.35
2018-05-03T12:19:49.176Z,17.36
2018-05-03T12:22:17.755Z,17.37
2018-05-03T12:24:44.996Z,18.33
2018-05-03T12:27:12.727Z,18.49
2018-05-03T12:29:40.992Z,18.16
2018-05-03T12:32:09.134Z,17.89
2018-05-03T12:34:36.161Z,18.16
2018-05-03T12:37:03.061Z,18.51
2018-05-03T12:39:30.653Z,17.01
2018-05-03T12:41:57.584Z,17.53
2018-05-03T12:44:24.473Z,17.43
2018-05-03T12:46:51.320Z,17.27
2018-05-03T12:49:18.320Z,17.36
2018-05-03T12:51:45.244Z,17.56
2018-05-03T12:54:12.074Z,18.04
2018-05-03T12:56:38.954Z,17.89
2018-05-03T12:59:05.855Z,18.13
2018-05-03T13:01:32.750Z,18.38
2018-05-03T13:03:59.605Z,17.99
2018-05-03T13:06:26.479Z,17.70
2018-05-03T13:08:53.377Z,17.65
2018-05-03T13:11:20.300Z,17.41
2018-05-03T13:13:48.120Z,17.20
2018-05-03T13:16:15.003Z,16.71
2018-05-03T13:18:41.887Z,16.48
2018-05-03T13:21:08.719Z,16.54
2018-05-03T13:23:35.656Z,17.00
2018-05-03T13:26:03.264Z,16.91
2018-05-03T13:28:30.125Z,16.65
2018-05-03T13:30:57.030Z,17.04
2018-05-03T13:33:23.990Z,17.18
2018-05-03T13:35:51.120Z,17.09
2018-05-03T13:38:17.987Z,16.72
2018-05-03T13:40:44.871Z,16.39
2018-05-03T13:43:11.794Z,15.88
2018-05-03T13:45:38.770Z,16.20
2018-05-03T13:48:05.701Z,16.31
2018-05-03T13:50:32.594Z,16.42
2018-05-03T13:52:59.443Z,16.47
2018-05-03T13:55:26.677Z,16.45
2018-05-03T13:57:53.483Z,16.51
2018-05-03T14:00:20.320Z,16.63
2018-05-03T14:02:47.220Z,16.50
2018-05-03T14:05:14.858Z,16.56
2018-05-03T14:07:41.695Z,16.65
2018-05-03T14:10:08.537Z,16.98
2018-05-03T14:12:35.411Z,16.88
2018-05-03T14:15:02.300Z,16.30
2018-05-03T14:17:29.223Z,16.05
2018-05-03T14:19:56.119Z,16.09
2018-05-03T14:22:23.005Z,15.81
2018-05-03T14:24:49.938Z,16.11
2018-05-03T14:27:17.597Z,16.71
2018-05-03T14:29:45.163Z,16.76
2018-05-03T14:32:12.802Z,16.79
2018-05-03T14:34:40.036Z,16.56
2018-05-03T14:37:06.885Z,16.94
2018-05-03T14:39:33.727Z,16.69
2018-05-03T14:42:00.601Z,16.54
2018-05-03T14:44:27.481Z,16.32
2018-05-03T14:46:54.336Z,16.32
2018-05-03T14:49:21.215Z,16.48
2018-05-03T14:51:48.057Z,16.83
2018-05-03T14:54:14.933Z,16.70
2018-05-03T14:56:42.535Z,16.52
2018-05-03T14:59:09.476Z,16.71
2018-05-03T15:01:36.317Z,16.67
2018-05-03T15:04:03.214Z,16.83
2018-05-03T15:06:30.142Z,17.27
2018-05-03T15:08:56.981Z,16.93
2018-05-03T15:11:23.833Z,16.86
2018-05-03T15:13:51.289Z,16.56
2018-05-03T15:16:18.271Z,17.28
2018-05-03T15:18:45.032Z,17.12
2018-05-03T15:21:12.181Z,16.88
2018-05-03T15:23:39.659Z,17.04
2018-05-03T15:26:07.352Z,16.81
2018-05-03T15:28:35.017Z,16.79
2018-05-03T15:31:01.878Z,16.91
2018-05-03T15:33:28.805Z,16.62
2018-05-03T15:35:55.686Z,16.40
2018-05-03T15:38:22.523Z,16.54
2018-05-03T15:40:50.104Z,16.49
2018-05-03T15:43:17.159Z,16.20
2018-05-03T15:45:43.993Z,16.31
2018-05-03T15:48:11.627Z,16.14
2018-05-03T15:50:38.475Z,15.85
2018-05-03T15:53:05.356Z,16.16
2018-05-03T15:55:32.199Z,16.08
2018-05-03T15:57:59.048Z,15.84
2018-05-03T16:00:25.944Z,16.03
2018-05-03T16:02:52.852Z,15.94
2018-05-03T16:05:19.699Z,15.51
2018-05-03T16:07:46.879Z,15.55
2018-05-03T16:10:13.728Z,15.43
2018-05-03T16:12:40.571Z,15.22
2018-05-03T16:15:07.463Z,15.47
2018-05-03T16:17:34.384Z,15.24
2018-05-03T16:20:01.220Z,14.95
2018-05-03T16:22:28.092Z,15.19
2018-05-03T16:24:54.941Z,15.13
2018-05-03T16:27:21.889Z,15.01
2018-05-03T16:29:49.067Z,15.21
2018-05-03T16:32:15.927Z,15.31
2018-05-03T16:34:42.812Z,15.23
2018-05-03T16:37:10.456Z,15.08
2018-05-03T16:39:37.349Z,15.15
2018-05-03T16:42:04.278Z,14.91
2018-05-03T16:44:31.178Z,15.05
2018-05-03T16:46:58.063Z,14.77
2018-05-03T16:49:25.741Z,14.85
2018-05-03T16:51:53.312Z,14.66
2018-05-03T16:54:20.153Z,14.53
2018-05-03T16:56:47.056Z,14.47
2018-05-03T16:59:13.941Z,14.50
2018-05-03T17:01:40.827Z,14.28
2018-05-03T17:04:07.677Z,14.39
2018-05-03T17:06:34.585Z,14.30
2018-05-03T17:09:01.480Z,13.95
2018-05-03T17:11:28.315Z,14.09
2018-05-03T17:13:55.452Z,14.17
2018-05-03T17:16:22.295Z,14.25
2018-05-03T17:18:49.139Z,14.16
2018-05-03T17:21:16.790Z,14.22
2018-05-03T17:23:43.728Z,14.19
2018-05-03T17:26:10.563Z,14.13
2018-05-03T17:28:37.411Z,14.07
2018-05-03T17:31:04.326Z,14.00
2018-05-03T17:33:31.277Z,13.72
2018-05-03T17:35:58.940Z,13.69
2018-05-03T17:38:26.560Z,13.78
2018-05-03T17:40:53.872Z,13.78
2018-05-03T17:43:20.710Z,13.76
2018-05-03T17:45:47.551Z,13.52
2018-05-03T17:48:14.448Z,13.60
2018-05-03T17:50:41.344Z,13.42
2018-05-03T17:53:08.187Z,13.32
2018-05-03T17:55:35.807Z,13.27
2018-05-03T17:58:02.680Z,13.21
2018-05-03T18:00:30.312Z,13.09
2018-05-03T18:02:57.165Z,12.95
2018-05-03T18:05:24.019Z,12.83
2018-05-03T18:07:50.910Z,12.77
2018-05-03T18:10:17.787Z,12.74
2018-05-03T18:12:44.628Z,12.58
2018-05-03T18:15:11.885Z,12.67
2018-05-03T18:17:38.723Z,12.57
2018-05-03T18:20:05.568Z,12.62
2018-05-03T18:22:32.435Z,12.38
2018-05-03T18:24:59.271Z,12.24
2018-05-03T18:27:26.155Z,12.19
2018-05-03T18:29:53.776Z,12.04
2018-05-03T18:32:20.661Z,12.08
2018-05-03T18:34:48.293Z,11.84
2018-05-03T18:37:15.484Z,12.04
2018-05-03T18:39:42.355Z,12.04
2018-05-03T18:42:09.194Z,12.05
2018-05-03T18:44:36.368Z,11.89
2018-05-03T18:47:03.239Z,11.80
2018-05-03T18:49:30.144Z,11.84
2018-05-03T18:51:57.769Z,11.89
2018-05-03T18:54:25.499Z,11.72
2018-05-03T18:56:52.400Z,11.60
2018-05-03T18:59:19.293Z,11.79
2018-05-03T19:01:46.186Z,11.80
2018-05-03T19:04:13.023Z,11.66
2018-05-03T19:06:40.216Z,11.53
2018-05-03T19:09:07.048Z,11.51
2018-05-03T19:11:33.940Z,11.49
2018-05-03T19:14:00.858Z,11.46
2018-05-03T19:16:27.760Z,11.30
2018-05-03T19:18:54.604Z,11.19
2018-05-03T19:21:21.488Z,11.09
2018-05-03T19:23:48.433Z,11.15
2018-05-03T19:26:15.253Z,10.98
2018-05-03T19:28:42.153Z,10.92
2018-05-03T19:31:09.736Z,10.69
2018-05-03T19:33:36.572Z,10.90
2018-05-03T19:36:04.216Z,10.69
2018-05-03T19:38:31.054Z,10.70
2018-05-03T19:40:58.086Z,10.63
2018-05-03T19:43:24.988Z,10.73
2018-05-03T19:45:51.877Z,10.70
2018-05-03T19:48:18.767Z,10.64
2018-05-03T19:50:46.382Z,10.60
2018-05-03T19:53:13.244Z,10.52
2018-05-03T19:55:40.157Z,10.56
2018-05-03T19:58:07.057Z,10.45
2018-05-03T20:00:34.704Z,10.19
2018-05-03T20:03:01.649Z,10.35
2018-05-03T20:05:28.496Z,10.12
2018-05-03T20:07:56.092Z,10.05
2018-05-03T20:10:22.979Z,10.12
2018-05-03T20:12:49.839Z,10.07
2018-05-03T20:15:16.778Z,10.11
2018-05-03T20:17:43.717Z,10.00
2018-05-03T20:20:11.589Z,9.95
2018-05-03T20:22:38.458Z,9.98
2018-05-03T20:25:06.043Z,9.85
2018-05-03T20:27:32.973Z,9.83
2018-05-03T20:30:00.583Z,9.84
2018-05-03T20:32:27.484Z,9.51
2018-05-03T20:34:54.639Z,9.38
2018-05-03T20:37:21.484Z,9.47
2018-05-03T20:39:49.075Z,9.50
2018-05-03T20:42:16.012Z,9.47
2018-05-03T20:44:42.876Z,9.38
2018-05-03T20:47:09.746Z,9.23
2018-05-03T20:49:36.657Z,9.15
2018-05-03T20:52:03.549Z,9.06
2018-05-03T20:54:31.159Z,8.87
2018-05-03T20:56:58.039Z,8.88
2018-05-03T20:59:24.970Z,9.03
2018-05-03T21:01:51.874Z,9.02
2018-05-03T21:04:19.469Z,9.03
2018-05-03T21:06:46.310Z,9.19
2018-05-03T21:09:13.212Z,9.05
2018-05-03T21:11:40.813Z,9.06
2018-05-03T21:14:07.707Z,8.89
2018-05-03T21:16:34.607Z,8.63
2018-05-03T21:19:01.480Z,8.79
2018-05-03T21:21:28.372Z,8.73
2018-05-03T21:23:55.231Z,8.70
2018-05-03T21:26:22.097Z,8.54
2018-05-03T21:28:48.995Z,8.36
2018-05-03T21:31:16.626Z,8.52
2018-05-03T21:33:43.542Z,8.45
2018-05-03T21:36:10.471Z,8.14
2018-05-03T21:38:37.359Z,8.25
2018-05-03T21:41:04.199Z,8.25
2018-05-03T21:43:31.617Z,8.26
2018-05-03T21:45:58.827Z,8.34
2018-05-03T21:48:26.451Z,8.34
2018-05-03T21:50:53.500Z,8.36
2018-05-03T21:53:20.393Z,8.09
2018-05-03T21:55:47.245Z,8.01
2018-05-03T21:58:14.915Z,8.05
2018-05-03T22:00:42.523Z,7.90
2018-05-03T22:03:09.404Z,7.86
2018-05-03T22:05:36.340Z,8.12
2018-05-03T22:08:03.265Z,8.00
2018-05-03T22:10:30.189Z,7.78
2018-05-03T22:12:57.049Z,7.65
2018-05-03T22:15:23.891Z,7.87
2018-05-03T22:17:50.816Z,7.57
2018-05-03T22:20:17.675Z,7.65
2018-05-03T22:22:44.560Z,7.42
2018-05-03T22:25:11.416Z,7.29
2018-05-03T22:27:38.306Z,7.38
2018-05-03T22:30:05.148Z,7.54
2018-05-03T22:32:31.985Z,7.48
2018-05-03T22:34:58.885Z,7.33
2018-05-03T22:37:25.825Z,7.29
2018-05-03T22:39:52.679Z,7.34
2018-05-03T22:42:19.570Z,7.17
2018-05-03T22:44:46.416Z,7.08
2018-05-03T22:47:13.295Z,7.45
2018-05-03T22:49:40.168Z,7.26
2018-05-03T22:52:07.041Z,7.19
2018-05-03T22:54:33.931Z,7.21
2018-05-03T22:57:00.772Z,7.20
2018-05-03T22:59:27.664Z,7.23
2018-05-03T23:01:55.538Z,6.98
2018-05-03T23:04:22.420Z,6.96
2018-05-03T23:06:49.316Z,6.93
2018-05-03T23:09:16.913Z,6.97
2018-05-03T23:11:43.812Z,7.05
2018-05-03T23:14:11.513Z,6.96
2018-05-03T23:16:38.389Z,6.91
2018-05-03T23:19:05.239Z,6.87
2018-05-03T23:21:32.206Z,6.92
2018-05-03T23:23:59.035Z,6.61
2018-05-03T23:26:25.904Z,6.78
2018-05-03T23:28:53.523Z,6.82
2018-05-03T23:31:20.395Z,6.74
2018-05-03T23:33:47.316Z,6.64
2018-05-03T23:36:14.159Z,6.43
2018-05-03T23:38:41.100Z,6.45
2018-05-03T23:41:07.990Z,6.54
2018-05-03T23:43:35.575Z,6.66
2018-05-03T23:46:06.699Z,6.51
2018-05-03T23:48:34.288Z,6.58
2018-05-03T23:51:01.145Z,6.61
2018-05-03T23:53:28.790Z,6.65
2018-05-03T23:55:55.643Z,6.46
2018-05-03T23:58:22.535Z,6.30
